createdAt,value
2022-10-23T00:01:36.215Z,57.24
2022-10-23T00:04:14.649Z,57.31
2022-10-23T00:06:42.649Z,57.17
2022-10-23T00:09:12.601Z,57.47
2022-10-23T00:11:41.482Z,57.63
2022-10-23T00:14:08.843Z,57.83
2022-10-23T00:16:35.985Z,57.97
2022-10-23T00:19:03.609Z,57.35
2022-10-23T00:21:30.414Z,57.09
2022-10-23T00:23:57.317Z,57.18
2022-10-23T00:26:24.385Z,56.55
2022-10-23T00:28:53.198Z,57.56
2022-10-23T00:31:21.640Z,57.77
2022-10-23T00:33:48.987Z,58.57
2022-10-23T00:36:18.047Z,58.50
2022-10-23T00:38:45.947Z,58.94
2022-10-23T00:41:23.371Z,59.24
2022-10-23T00:44:10.799Z,59.01
2022-10-23T00:46:39.095Z,58.84
2022-10-23T00:49:07.318Z,59.50
2022-10-23T00:51:45.040Z,59.52
2022-10-23T00:54:29.407Z,59.16
2022-10-23T00:57:02.605Z,58.74
2022-10-23T00:59:30.242Z,57.64
2022-10-23T01:01:57.779Z,58.17
2022-10-23T01:04:27.942Z,58.18
2022-10-23T01:07:10.147Z,57.62
2022-10-23T01:09:46.856Z,58.50
2022-10-23T01:12:26.588Z,58.83
2022-10-23T01:15:35.240Z,58.14
2022-10-23T01:18:16.631Z,57.57
2022-10-23T01:21:10.275Z,57.55
2022-10-23T01:23:55.525Z,57.11
2022-10-23T01:26:55.686Z,57.50
2022-10-23T01:29:35.584Z,57.13
2022-10-23T01:32:35.645Z,57.74
2022-10-23T01:35:11.787Z,58.23
2022-10-23T01:37:46.767Z,58.60
2022-10-23T01:40:29.370Z,59.48
2022-10-23T01:43:02.349Z,58.89
2022-10-23T01:45:53.388Z,59.21
2022-10-23T01:48:27.490Z,59.68
2022-10-23T01:50:58.149Z,59.59
2022-10-23T01:53:27.995Z,58.74
2022-10-23T01:55:55.877Z,57.92
2022-10-23T01:58:27.078Z,57.36
2022-10-23T02:00:58.917Z,58.16
2022-10-23T02:03:30.389Z,57.97
2022-10-23T02:05:58.110Z,57.31
2022-10-23T02:08:27.902Z,58.15
2022-10-23T02:11:11.510Z,59.89
2022-10-23T02:13:45.526Z,60.23
2022-10-23T02:16:39.372Z,60.41
2022-10-23T02:19:27.003Z,60.43
2022-10-23T02:22:28.825Z,60.54
2022-10-23T02:25:05.883Z,61.01
2022-10-23T02:27:42.397Z,61.79
2022-10-23T02:30:13.031Z,61.12
2022-10-23T02:32:46.587Z,60.16
2022-10-23T02:35:14.147Z,61.14
2022-10-23T02:37:41.513Z,60.52
2022-10-23T02:40:09.937Z,59.95
2022-10-23T02:42:50.039Z,59.34
2022-10-23T02:45:33.839Z,59.70
2022-10-23T02:48:12.393Z,58.85
2022-10-23T02:51:03.077Z,59.37
2022-10-23T02:53:43.043Z,59.24
2022-10-23T02:56:55.620Z,59.74
2022-10-23T02:59:44.175Z,59.08
2022-10-23T03:02:26.151Z,59.62
2022-10-23T03:04:56.122Z,58.74
2022-10-23T03:07:25.807Z,59.94
2022-10-23T03:10:02.098Z,60.20
2022-10-23T03:12:30.751Z,60.34
2022-10-23T03:14:59.093Z,59.93
2022-10-23T03:17:26.024Z,59.89
2022-10-23T03:19:56.113Z,59.85
2022-10-23T03:22:23.126Z,59.97
2022-10-23T03:24:49.909Z,60.15
2022-10-23T03:27:16.797Z,60.90
2022-10-23T03:29:43.732Z,60.75
2022-10-23T03:32:10.633Z,60.76
2022-10-23T03:34:38.105Z,61.57
2022-10-23T03:37:05.169Z,61.28
2022-10-23T03:39:32.093Z,60.70
2022-10-23T03:41:58.919Z,60.29
2022-10-23T03:44:26.057Z,61.58
2022-10-23T03:46:53.066Z,61.22
2022-10-23T03:49:21.150Z,60.58
2022-10-23T03:51:52.216Z,60.75
2022-10-23T03:54:25.798Z,61.69
2022-10-23T03:56:56.649Z,61.63
2022-10-23T03:59:26.063Z,61.53
2022-10-23T04:01:53.469Z,61.36
2022-10-23T04:04:20.393Z,61.97
2022-10-23T04:06:47.895Z,61.89
2022-10-23T04:09:14.863Z,61.17
2022-10-23T04:11:43.847Z,60.56
2022-10-23T04:14:13.308Z,58.88
2022-10-23T04:16:40.583Z,57.18
2022-10-23T04:19:07.458Z,58.26
2022-10-23T04:21:34.422Z,58.54
2022-10-23T04:24:01.482Z,58.17
2022-10-23T04:26:28.503Z,57.94
2022-10-23T04:28:55.297Z,57.26
2022-10-23T04:31:22.111Z,57.43
2022-10-23T04:33:49.583Z,58.79
2022-10-23T04:36:32.146Z,57.48
2022-10-23T04:39:06.861Z,57.78
2022-10-23T04:41:33.821Z,56.66
2022-10-23T04:44:00.824Z,57.10
2022-10-23T04:46:28.384Z,57.31
2022-10-23T04:48:55.206Z,58.45
2022-10-23T04:51:40.548Z,57.88
2022-10-23T04:54:24.783Z,58.13
2022-10-23T04:57:01.157Z,57.59
2022-10-23T04:59:37.009Z,58.03
2022-10-23T05:02:04.283Z,57.40
2022-10-23T05:04:31.451Z,57.60
2022-10-23T05:07:17.034Z,57.69
2022-10-23T05:10:10.250Z,58.13
2022-10-23T05:12:47.707Z,57.64
2022-10-23T05:15:14.930Z,56.90
2022-10-23T05:17:46.935Z,55.37
2022-10-23T05:20:21.798Z,54.61
2022-10-23T05:22:52.548Z,54.13
2022-10-23T05:25:24.092Z,53.71
2022-10-23T05:27:59.149Z,54.52
2022-10-23T05:30:26.345Z,55.49
2022-10-23T05:32:54.359Z,55.09
2022-10-23T05:35:24.546Z,55.44
2022-10-23T05:37:54.536Z,54.89
2022-10-23T05:40:24.284Z,53.83
2022-10-23T05:42:57.331Z,52.45
2022-10-23T05:45:47.355Z,51.81
2022-10-23T05:48:52.930Z,51.58
2022-10-23T05:51:23.113Z,52.53
2022-10-23T05:54:11.147Z,53.24
2022-10-23T05:56:46.799Z,54.39
2022-10-23T05:59:23.175Z,53.41
2022-10-23T06:02:19.913Z,50.53
2022-10-23T06:04:53.028Z,49.05
2022-10-23T06:07:32.441Z,49.32
2022-10-23T06:10:06.180Z,47.33
2022-10-23T06:12:36.179Z,50.30
2022-10-23T06:15:04.003Z,49.99
2022-10-23T06:17:50.760Z,45.24
2022-10-23T06:20:17.954Z,44.94
2022-10-23T06:22:53.037Z,43.91
2022-10-23T06:25:41.562Z,42.91
2022-10-23T06:28:08.655Z,42.52
2022-10-23T06:30:39.313Z,42.20
2022-10-23T06:33:06.640Z,42.52
2022-10-23T06:35:33.881Z,42.03
2022-10-23T06:38:01.277Z,42.43
2022-10-23T06:40:37.958Z,42.08
2022-10-23T06:43:08.633Z,42.43
2022-10-23T06:46:02.169Z,43.11
2022-10-23T06:49:04.332Z,44.47
2022-10-23T06:51:35.820Z,44.54
2022-10-23T06:54:04.203Z,42.70
2022-10-23T06:57:00.339Z,42.19
2022-10-23T06:59:41.050Z,41.68
2022-10-23T07:02:10.068Z,40.11
2022-10-23T07:04:39.778Z,40.02
2022-10-23T07:07:12.263Z,39.22
2022-10-23T07:09:45.125Z,38.87
2022-10-23T07:12:21.474Z,38.32
2022-10-23T07:14:54.545Z,40.07
2022-10-23T07:17:21.930Z,38.59
2022-10-23T07:19:48.773Z,39.31
2022-10-23T07:22:16.160Z,39.40
2022-10-23T07:25:05.304Z,39.79
2022-10-23T07:27:38.424Z,39.48
2022-10-23T07:30:08.292Z,40.60
2022-10-23T07:32:43.960Z,39.90
2022-10-23T07:35:29.465Z,40.14
2022-10-23T07:38:09.453Z,39.74
2022-10-23T07:40:41.020Z,39.22
2022-10-23T07:43:09.996Z,38.75
2022-10-23T07:45:37.284Z,38.21
2022-10-23T07:48:14.471Z,37.98
2022-10-23T07:51:03.606Z,38.30
2022-10-23T07:53:31.294Z,37.61
2022-10-23T07:56:14.564Z,37.39
2022-10-23T07:59:19.564Z,37.37
2022-10-23T08:01:55.831Z,36.35
2022-10-23T08:04:27.691Z,37.15
2022-10-23T08:07:01.174Z,36.91
2022-10-23T08:09:31.379Z,36.53
2022-10-23T08:11:58.255Z,36.73
2022-10-23T08:14:28.686Z,37.41
2022-10-23T08:16:55.869Z,36.73
2022-10-23T08:19:46.492Z,36.55
2022-10-23T08:22:14.786Z,35.93
2022-10-23T08:24:41.796Z,36.66
2022-10-23T08:27:08.753Z,36.47
2022-10-23T08:29:41.955Z,35.17
2022-10-23T08:32:09.244Z,35.72
2022-10-23T08:34:47.786Z,35.86
2022-10-23T08:37:14.674Z,36.19
2022-10-23T08:39:41.659Z,36.52
2022-10-23T08:42:25.593Z,37.54
2022-10-23T08:45:03.744Z,37.18
2022-10-23T08:47:41.069Z,36.12
2022-10-23T08:50:25.531Z,35.46
2022-10-23T08:53:01.063Z,34.87
2022-10-23T08:55:35.927Z,34.69
2022-10-23T08:58:25.717Z,34.59
2022-10-23T09:00:52.692Z,32.48
2022-10-23T09:03:19.854Z,33.41
2022-10-23T09:06:01.932Z,33.27
2022-10-23T09:08:53.372Z,33.26
2022-10-23T09:11:38.607Z,33.12
2022-10-23T09:14:27.772Z,33.29
2022-10-23T09:19:47.010Z,33.01
2022-10-23T09:22:14.100Z,32.94
2022-10-23T09:24:43.710Z,32.71
2022-10-23T09:27:16.879Z,32.22
2022-10-23T09:29:55.220Z,31.73
2022-10-23T09:32:37.630Z,32.09
2022-10-23T09:35:05.814Z,31.50
2022-10-23T09:37:35.960Z,31.83
2022-10-23T09:40:12.337Z,31.87
2022-10-23T09:42:52.889Z,30.97
2022-10-23T09:45:56.076Z,30.95
2022-10-23T09:48:23.035Z,31.32
2022-10-23T09:50:54.393Z,30.92
2022-10-23T09:53:38.515Z,30.33
2022-10-23T09:56:24.817Z,31.08
2022-10-23T09:58:59.075Z,30.83
2022-10-23T10:01:29.524Z,29.23
2022-10-23T10:04:09.647Z,30.54
2022-10-23T10:06:36.779Z,30.86
2022-10-23T10:09:13.498Z,30.90
2022-10-23T10:11:46.354Z,30.14
2022-10-23T10:14:30.224Z,30.35
2022-10-23T10:16:59.704Z,30.70
2022-10-23T10:20:05.238Z,30.63
2022-10-23T10:22:53.054Z,30.53
2022-10-23T10:25:47.451Z,29.99
2022-10-23T10:28:38.163Z,30.52
2022-10-23T10:31:16.936Z,30.57
2022-10-23T10:33:49.753Z,30.71
2022-10-23T10:36:48.201Z,30.59
2022-10-23T10:39:47.000Z,30.02
2022-10-23T10:42:27.144Z,30.63
2022-10-23T10:45:23.500Z,29.96
2022-10-23T10:48:27.647Z,30.48
2022-10-23T10:51:24.296Z,30.76
2022-10-23T10:54:27.934Z,30.54
2022-10-23T10:56:58.396Z,30.86
2022-10-23T10:59:30.600Z,30.79
2022-10-23T11:02:41.569Z,30.58
2022-10-23T11:05:23.721Z,30.36
2022-10-23T11:08:00.362Z,31.27
2022-10-23T11:10:29.080Z,30.53
2022-10-23T11:12:56.987Z,30.91
2022-10-23T11:15:38.908Z,30.58
2022-10-23T11:18:14.104Z,30.66
2022-10-23T11:21:11.940Z,30.39
2022-10-23T11:24:03.819Z,29.87
2022-10-23T11:27:00.004Z,30.20
2022-10-23T11:29:44.862Z,29.98
2022-10-23T11:35:06.094Z,29.74
2022-10-23T11:37:33.341Z,29.77
2022-10-23T11:40:09.409Z,29.43
2022-10-23T11:42:39.329Z,29.04
2022-10-23T11:45:36.147Z,29.71
2022-10-23T11:48:21.055Z,29.74
2022-10-23T11:50:47.824Z,29.66
2022-10-23T11:53:33.069Z,29.37
2022-10-23T11:56:12.089Z,29.00
2022-10-23T11:58:51.221Z,28.33
2022-10-23T12:01:30.480Z,28.18
2022-10-23T12:04:12.558Z,28.75
2022-10-23T12:06:42.760Z,29.14
2022-10-23T12:09:25.859Z,29.45
2022-10-23T12:12:07.700Z,28.96
2022-10-23T12:14:45.976Z,28.07
2022-10-23T12:17:36.027Z,27.77
2022-10-23T12:20:08.771Z,28.37
2022-10-23T12:22:44.578Z,27.97
2022-10-23T12:25:17.054Z,28.46
2022-10-23T12:28:03.923Z,28.92
2022-10-23T12:30:42.227Z,27.26
2022-10-23T12:33:32.047Z,27.09
2022-10-23T12:36:20.373Z,27.87
2022-10-23T12:38:49.932Z,27.30
2022-10-23T12:41:23.197Z,27.53
2022-10-23T12:43:55.104Z,27.37
2022-10-23T12:46:34.812Z,28.10
2022-10-23T12:49:12.810Z,27.50
2022-10-23T12:51:39.648Z,28.26
2022-10-23T12:54:18.338Z,27.44
2022-10-23T12:56:46.070Z,28.30
2022-10-23T12:59:28.244Z,28.14
2022-10-23T13:01:56.196Z,28.43
2022-10-23T13:04:26.817Z,28.95
2022-10-23T13:06:56.258Z,28.78
2022-10-23T13:09:36.146Z,29.07
2022-10-23T13:12:18.644Z,28.92
2022-10-23T13:15:08.817Z,29.43
2022-10-23T13:17:44.669Z,29.23
2022-10-23T13:20:22.809Z,29.05
2022-10-23T13:22:57.690Z,29.20
2022-10-23T13:25:28.908Z,28.50
2022-10-23T13:28:07.996Z,28.71
2022-10-23T13:30:38.773Z,29.30
2022-10-23T13:33:21.140Z,29.42
2022-10-23T13:36:04.812Z,30.06
2022-10-23T13:38:37.557Z,29.61
2022-10-23T13:41:15.061Z,29.74
2022-10-23T13:43:42.851Z,29.71
2022-10-23T13:46:14.861Z,30.33
2022-10-23T13:48:42.122Z,29.88
2022-10-23T13:51:20.642Z,30.69
2022-10-23T13:53:47.941Z,30.56
2022-10-23T13:56:17.172Z,30.51
2022-10-23T13:58:44.085Z,31.01
2022-10-23T14:01:23.237Z,30.77
2022-10-23T14:03:51.322Z,30.61
2022-10-23T14:06:18.349Z,30.19
2022-10-23T14:08:45.920Z,31.24
2022-10-23T14:13:46.414Z,31.95
2022-10-23T14:16:15.474Z,31.22
2022-10-23T14:18:42.864Z,31.76
2022-10-23T14:21:12.449Z,31.72
2022-10-23T14:23:39.774Z,31.52
2022-10-23T14:26:13.069Z,32.79
2022-10-23T14:28:40.156Z,33.58
2022-10-23T14:31:15.425Z,33.60
2022-10-23T14:33:43.442Z,33.63
2022-10-23T14:36:10.662Z,33.54
2022-10-23T14:38:37.756Z,34.07
2022-10-23T14:41:11.709Z,34.01
2022-10-23T14:43:38.850Z,33.69
2022-10-23T14:46:17.356Z,34.70
2022-10-23T14:48:46.201Z,34.19
2022-10-23T14:51:23.884Z,35.15
2022-10-23T14:53:58.827Z,34.68
2022-10-23T14:56:26.280Z,34.40
2022-10-23T14:58:53.118Z,35.22
2022-10-23T15:01:20.248Z,36.07
2022-10-23T15:03:48.636Z,35.51
2022-10-23T15:06:18.269Z,36.26
2022-10-23T15:08:45.445Z,37.15
2022-10-23T15:11:12.806Z,36.65
2022-10-23T15:13:39.769Z,36.61
2022-10-23T15:16:10.266Z,37.40
2022-10-23T15:21:06.893Z,38.06
2022-10-23T15:23:39.155Z,38.01
2022-10-23T15:26:09.458Z,37.41
2022-10-23T15:28:36.295Z,38.15
2022-10-23T15:31:03.222Z,38.47
2022-10-23T15:33:30.170Z,38.25
2022-10-23T15:35:56.998Z,38.70
2022-10-23T15:38:24.571Z,38.52
2022-10-23T15:40:58.574Z,38.31
2022-10-23T15:43:25.466Z,38.43
2022-10-23T15:45:52.281Z,39.24
2022-10-23T15:48:19.432Z,38.68
2022-10-23T15:50:46.269Z,38.87
2022-10-23T15:53:13.251Z,39.40
2022-10-23T15:55:40.044Z,39.84
2022-10-23T15:58:06.962Z,39.09
2022-10-23T16:00:36.353Z,39.34
2022-10-23T16:03:03.424Z,39.42
2022-10-23T16:05:30.499Z,39.87
2022-10-23T16:07:57.417Z,39.82
2022-10-23T16:10:25.037Z,40.55
2022-10-23T16:12:51.954Z,40.18
2022-10-23T16:15:18.784Z,40.58
2022-10-23T16:17:45.888Z,40.17
2022-10-23T16:20:12.892Z,40.84
2022-10-23T16:22:42.680Z,41.19
2022-10-23T16:25:11.885Z,41.24
2022-10-23T16:27:39.002Z,40.79
2022-10-23T16:30:09.079Z,40.13
2022-10-23T16:32:36.605Z,40.35
2022-10-23T16:35:03.713Z,41.26
2022-10-23T16:37:40.398Z,41.48
2022-10-23T16:40:13.577Z,41.85
2022-10-23T16:42:58.939Z,41.79
2022-10-23T16:45:44.233Z,42.23
2022-10-23T16:48:11.447Z,42.04
2022-10-23T16:53:12.089Z,42.68
2022-10-23T16:55:40.973Z,42.04
2022-10-23T16:58:07.787Z,42.48
2022-10-23T17:00:37.724Z,43.03
2022-10-23T17:03:05.462Z,42.75
2022-10-23T17:05:35.781Z,43.19
2022-10-23T17:08:02.622Z,43.42
2022-10-23T17:10:29.487Z,43.56
2022-10-23T17:12:56.334Z,43.21
2022-10-23T17:15:23.971Z,44.04
2022-10-23T17:17:50.989Z,43.80
2022-10-23T17:20:18.180Z,43.92
2022-10-23T17:22:44.989Z,43.18
2022-10-23T17:25:12.693Z,42.82
2022-10-23T17:27:39.731Z,43.27
2022-10-23T17:30:10.413Z,43.54
2022-10-23T17:32:39.339Z,43.16
2022-10-23T17:35:07.085Z,43.20
2022-10-23T17:37:33.955Z,43.30
2022-10-23T17:40:02.633Z,43.63
2022-10-23T17:42:29.702Z,43.89
2022-10-23T17:44:56.641Z,43.78
2022-10-23T17:47:23.525Z,43.91
2022-10-23T17:49:50.397Z,43.98
2022-10-23T17:52:17.435Z,44.67
2022-10-23T17:54:44.286Z,45.57
2022-10-23T17:57:11.466Z,45.20
2022-10-23T17:59:39.186Z,45.66
2022-10-23T18:02:07.250Z,45.89
2022-10-23T18:04:34.840Z,45.65
2022-10-23T18:07:01.715Z,46.14
2022-10-23T18:09:28.590Z,46.28
2022-10-23T18:11:55.571Z,46.29
2022-10-23T18:14:23.540Z,46.69
2022-10-23T18:16:52.568Z,47.13
2022-10-23T18:19:19.613Z,46.62
2022-10-23T18:21:47.860Z,46.81
2022-10-23T18:24:15.641Z,47.35
2022-10-23T18:26:42.660Z,47.80
2022-10-23T18:29:11.997Z,46.86
2022-10-23T18:31:39.426Z,46.79
2022-10-23T18:34:09.398Z,46.94
2022-10-23T18:36:40.804Z,46.84
2022-10-23T18:39:12.004Z,47.34
2022-10-23T18:41:41.510Z,47.42
2022-10-23T18:44:09.829Z,47.15
2022-10-23T18:46:37.129Z,47.54
2022-10-23T18:49:04.775Z,47.57
2022-10-23T18:51:35.085Z,47.65
2022-10-23T18:54:05.083Z,47.38
2022-10-23T18:56:34.137Z,47.56
2022-10-23T18:59:03.171Z,47.83
2022-10-23T19:01:30.771Z,48.02
2022-10-23T19:03:59.544Z,47.68
2022-10-23T19:06:27.189Z,47.28
2022-10-23T19:08:54.705Z,47.29
2022-10-23T19:11:23.663Z,47.41
2022-10-23T19:13:50.561Z,46.74
2022-10-23T19:16:33.383Z,47.20
2022-10-23T19:19:28.520Z,47.83
2022-10-23T19:21:56.605Z,47.76
2022-10-23T19:24:29.608Z,47.66
2022-10-23T19:27:00.321Z,47.41
2022-10-23T19:29:27.796Z,47.13
2022-10-23T19:31:55.065Z,46.54
2022-10-23T19:34:25.107Z,46.54
2022-10-23T19:36:53.761Z,46.90
2022-10-23T19:39:20.883Z,46.64
2022-10-23T19:41:48.222Z,47.28
2022-10-23T19:44:15.356Z,47.43
2022-10-23T19:46:42.176Z,46.67
2022-10-23T19:49:09.203Z,46.68
2022-10-23T19:51:36.931Z,46.77
2022-10-23T19:54:04.221Z,46.71
2022-10-23T19:56:31.116Z,46.71
2022-10-23T19:58:57.944Z,46.79
2022-10-23T20:01:25.892Z,47.78
2022-10-23T20:03:53.206Z,48.03
2022-10-23T20:06:23.408Z,48.59
2022-10-23T20:08:50.333Z,48.74
2022-10-23T20:11:23.336Z,49.13
2022-10-23T20:13:51.631Z,49.13
2022-10-23T20:16:30.207Z,49.76
2022-10-23T20:18:57.720Z,49.37
2022-10-23T20:21:25.097Z,49.86
2022-10-23T20:23:52.635Z,50.19
2022-10-23T20:26:23.646Z,50.38
2022-10-23T20:28:53.855Z,50.44
2022-10-23T20:31:23.114Z,49.98
2022-10-23T20:33:50.773Z,50.19
2022-10-23T20:36:34.011Z,50.41
2022-10-23T20:39:10.027Z,50.30
2022-10-23T20:41:37.563Z,52.26
2022-10-23T20:44:11.576Z,50.99
2022-10-23T20:46:38.997Z,51.33
2022-10-23T20:49:05.956Z,52.27
2022-10-23T20:51:32.877Z,52.34
2022-10-23T20:53:59.694Z,51.86
2022-10-23T20:56:32.550Z,51.72
2022-10-23T20:59:05.185Z,52.30
2022-10-23T21:01:32.803Z,53.15
2022-10-23T21:04:01.466Z,52.85
2022-10-23T21:06:41.056Z,51.92
2022-10-23T21:09:17.179Z,52.65
2022-10-23T21:11:44.021Z,52.56
2022-10-23T21:14:11.008Z,51.91
2022-10-23T21:16:40.874Z,52.13
2022-10-23T21:19:09.082Z,51.66
2022-10-23T21:21:36.170Z,51.77
2022-10-23T21:24:06.801Z,52.16
2022-10-23T21:26:34.169Z,52.02
2022-10-23T21:29:17.408Z,51.63
2022-10-23T21:31:45.669Z,52.99
2022-10-23T21:34:12.587Z,53.36
2022-10-23T21:36:48.528Z,52.76
2022-10-23T21:39:26.335Z,52.77
2022-10-23T21:41:53.125Z,54.26
2022-10-23T21:44:19.959Z,53.19
2022-10-23T21:46:47.122Z,52.19
2022-10-23T21:49:13.994Z,54.90
2022-10-23T21:51:41.051Z,55.11
2022-10-23T21:54:10.903Z,55.05
2022-10-23T21:56:41.925Z,54.86
2022-10-23T21:59:13.440Z,53.16
2022-10-23T22:01:43.281Z,52.98
2022-10-23T22:04:15.027Z,53.77
2022-10-23T22:06:42.868Z,52.51
2022-10-23T22:09:11.545Z,52.05
2022-10-23T22:11:38.896Z,53.11
2022-10-23T22:14:05.744Z,52.72
2022-10-23T22:16:32.711Z,53.28
2022-10-23T22:18:59.603Z,54.14
2022-10-23T22:21:28.838Z,54.32
2022-10-23T22:23:57.889Z,55.16
2022-10-23T22:26:29.407Z,56.42
2022-10-23T22:28:59.041Z,54.99
2022-10-23T22:31:29.107Z,54.63
2022-10-23T22:33:57.013Z,54.21
2022-10-23T22:36:25.388Z,54.67
2022-10-23T22:38:52.480Z,54.38
2022-10-23T22:41:19.739Z,54.30
2022-10-23T22:43:46.702Z,54.21
2022-10-23T22:46:16.618Z,53.72
2022-10-23T22:48:44.480Z,55.15
2022-10-23T22:51:13.469Z,55.72
2022-10-23T22:53:40.656Z,56.00
2022-10-23T22:56:09.473Z,56.84
2022-10-23T22:58:36.897Z,56.18
2022-10-23T23:01:15.064Z,55.44
2022-10-23T23:03:43.106Z,56.00
2022-10-23T23:06:11.194Z,55.66
2022-10-23T23:08:40.337Z,55.92
2022-10-23T23:11:09.312Z,54.92
2022-10-23T23:13:36.633Z,55.20
2022-10-23T23:16:04.307Z,55.61
2022-10-23T23:18:31.819Z,56.16
2022-10-23T23:21:03.321Z,56.74
2022-10-23T23:23:30.377Z,56.31
2022-10-23T23:25:57.534Z,55.59
2022-10-23T23:28:24.672Z,55.92
2022-10-23T23:31:03.654Z,55.93
2022-10-23T23:33:30.509Z,55.99
2022-10-23T23:35:57.462Z,55.70
2022-10-23T23:38:24.278Z,55.41
2022-10-23T23:40:52.862Z,55.13
2022-10-23T23:43:20.245Z,56.09
2022-10-23T23:45:47.207Z,57.35
2022-10-23T23:48:14.053Z,57.21
2022-10-23T23:50:41.623Z,57.26
2022-10-23T23:53:08.514Z,57.41
2022-10-23T23:55:35.485Z,57.81
2022-10-23T23:58:02.511Z,58.05
